Lake Hamilton, Arkansas
Current Conditions -  °F | °C
As of 10:53 AM on Friday 24 Oct 2014 (Local Time) from KHOT Reporting Station
Clear Clear  
Wind Chill: 64°   Ceiling: Unl
Heat Index: 64°   Visibility: 10mi
Dew Point: 52°   Wind: 3mph
Humidity: 65%   Direction: NA
Pressure: 30.19"   Gusts: NA
Location:  34.4476°N, 93.1429°W
Report Text: KHOT 241553Z AUTO VRB03KT 10SM CLR 18/11 A3019 RMK AO2 SLP219 T01780111
Loading
Personal Weather Stations






























Interactive Weather Map
Tropical Storm Tracking
New forecast layout! Learn more

10-Day Weather Forecast

Advertisements
Track Severe Weather on mobile